createdAt,value
2022-11-23T00:01:37.950Z,7.08
2022-11-23T00:04:09.312Z,6.90
2022-11-23T00:06:36.585Z,6.88
2022-11-23T00:09:04.589Z,7.01
2022-11-23T00:11:31.164Z,6.81
2022-11-23T00:13:57.678Z,6.88
2022-11-23T00:16:26.926Z,6.79
2022-11-23T00:18:55.498Z,6.78
2022-11-23T00:21:23.434Z,6.68
2022-11-23T00:23:50.249Z,7.04
2022-11-23T00:26:18.053Z,7.10
2022-11-23T00:28:45.756Z,7.01
2022-11-23T00:31:20.939Z,6.85
2022-11-23T00:33:55.302Z,6.90
2022-11-23T00:36:23.932Z,6.90
2022-11-23T00:38:51.424Z,6.91
2022-11-23T00:41:19.925Z,7.00
2022-11-23T00:43:46.641Z,7.04
2022-11-23T00:46:24.786Z,6.96
2022-11-23T00:48:53.522Z,7.09
2022-11-23T00:51:23.401Z,7.20
2022-11-23T00:53:51.368Z,7.14
2022-11-23T00:56:18.665Z,7.13
2022-11-23T00:58:52.794Z,7.12
2022-11-23T01:01:22.035Z,6.98
2022-11-23T01:03:52.006Z,7.01
2022-11-23T01:06:23.796Z,6.95
2022-11-23T01:08:52.963Z,6.99
2022-11-23T01:11:20.970Z,6.94
2022-11-23T01:13:48.043Z,7.12
2022-11-23T01:16:24.125Z,7.15
2022-11-23T01:18:55.573Z,7.24
2022-11-23T01:21:22.724Z,7.24
2022-11-23T01:23:49.310Z,7.20
2022-11-23T01:26:16.033Z,7.23
2022-11-23T01:28:42.886Z,7.12
2022-11-23T01:31:13.671Z,7.14
2022-11-23T01:33:43.259Z,7.10
2022-11-23T01:36:18.846Z,7.14
2022-11-23T01:38:46.976Z,7.24
2022-11-23T01:41:17.421Z,7.22
2022-11-23T01:43:44.442Z,7.28
2022-11-23T01:46:12.286Z,7.32
2022-11-23T01:48:56.239Z,7.45
2022-11-23T01:51:41.631Z,7.36
2022-11-23T01:54:21.695Z,7.28
2022-11-23T01:56:55.351Z,7.31
2022-11-23T01:59:23.429Z,7.38
2022-11-23T02:01:49.946Z,7.15
2022-11-23T02:04:22.477Z,7.10
2022-11-23T02:06:49.297Z,7.36
2022-11-23T02:09:16.643Z,7.24
2022-11-23T02:11:43.631Z,7.43
2022-11-23T02:14:22.001Z,7.53
2022-11-23T02:16:50.030Z,7.32
2022-11-23T02:19:37.400Z,7.43
2022-11-23T02:22:10.295Z,7.29
2022-11-23T02:24:45.239Z,7.29
2022-11-23T02:27:12.509Z,7.22
2022-11-23T02:29:44.475Z,7.17
2022-11-23T02:32:10.947Z,7.30
2022-11-23T02:34:37.470Z,7.32
2022-11-23T02:37:03.960Z,7.08
2022-11-23T02:39:34.591Z,7.19
2022-11-23T02:42:01.272Z,7.14
2022-11-23T02:44:36.557Z,7.28
2022-11-23T02:47:04.939Z,7.35
2022-11-23T02:49:31.768Z,7.27
2022-11-23T02:51:58.511Z,7.35
2022-11-23T02:54:25.046Z,7.26
2022-11-23T02:56:51.556Z,7.35
2022-11-23T02:59:18.375Z,7.35
2022-11-23T03:01:49.104Z,7.40
2022-11-23T03:04:15.736Z,7.42
2022-11-23T03:06:42.371Z,7.31
2022-11-23T03:09:08.980Z,7.26
2022-11-23T03:11:35.584Z,7.43
2022-11-23T03:14:02.101Z,7.30
2022-11-23T03:16:28.611Z,7.31
2022-11-23T03:18:55.288Z,7.42
2022-11-23T03:21:21.835Z,7.36
2022-11-23T03:23:48.468Z,7.44
2022-11-23T03:26:16.718Z,7.39
2022-11-23T03:28:43.295Z,7.36
2022-11-23T03:31:09.820Z,7.37
2022-11-23T03:33:36.339Z,7.22
2022-11-23T03:36:02.855Z,7.32
2022-11-23T03:38:29.362Z,7.49
2022-11-23T03:40:55.902Z,7.48
2022-11-23T03:43:23.188Z,7.22
2022-11-23T03:45:49.780Z,7.48
2022-11-23T03:48:19.703Z,7.28
2022-11-23T03:50:48.600Z,7.37
2022-11-23T03:53:15.103Z,7.32
2022-11-23T03:55:41.639Z,7.34
2022-11-23T03:58:08.164Z,7.44
2022-11-23T04:00:35.022Z,7.27
2022-11-23T04:03:01.561Z,7.39
2022-11-23T04:05:28.173Z,7.47
2022-11-23T04:07:55.100Z,7.40
2022-11-23T04:10:21.753Z,7.32
2022-11-23T04:12:52.562Z,7.49
2022-11-23T04:15:21.904Z,7.38
2022-11-23T04:17:51.314Z,7.36
2022-11-23T04:20:18.875Z,7.33
2022-11-23T04:22:45.383Z,7.34
2022-11-23T04:25:11.935Z,7.44
2022-11-23T04:27:38.658Z,7.42
2022-11-23T04:30:05.901Z,7.43
2022-11-23T04:32:32.434Z,7.39
2022-11-23T04:34:59.053Z,7.51
2022-11-23T04:37:25.562Z,7.39
2022-11-23T04:39:52.096Z,7.42
2022-11-23T04:42:21.035Z,7.45
2022-11-23T04:44:47.580Z,7.62
2022-11-23T04:47:14.069Z,7.57
2022-11-23T04:49:40.560Z,7.59
2022-11-23T04:52:07.647Z,7.48
2022-11-23T04:54:34.163Z,7.67
2022-11-23T04:57:00.680Z,7.69
2022-11-23T04:59:27.319Z,7.40
2022-11-23T05:01:53.835Z,7.41
2022-11-23T05:04:22.720Z,7.38
2022-11-23T05:06:49.220Z,7.37
2022-11-23T05:09:16.129Z,7.42
2022-11-23T05:11:42.632Z,7.21
2022-11-23T05:14:09.165Z,7.32
2022-11-23T05:16:35.724Z,7.33
2022-11-23T05:19:02.622Z,7.29
2022-11-23T05:21:29.124Z,7.39
2022-11-23T05:23:55.629Z,7.32
2022-11-23T05:26:25.448Z,7.33
2022-11-23T05:28:54.020Z,7.37
2022-11-23T05:31:20.606Z,7.40
2022-11-23T05:33:47.138Z,7.37
2022-11-23T05:36:14.160Z,7.44
2022-11-23T05:38:41.543Z,7.34
2022-11-23T05:41:08.121Z,7.35
2022-11-23T05:43:34.811Z,7.42
2022-11-23T05:46:02.359Z,7.25
2022-11-23T05:48:28.887Z,7.39
2022-11-23T05:50:56.910Z,7.31
2022-11-23T05:53:25.545Z,7.39
2022-11-23T05:55:52.084Z,7.50
2022-11-23T05:58:18.847Z,7.31
2022-11-23T06:00:45.487Z,7.25
2022-11-23T06:03:12.016Z,7.26
2022-11-23T06:05:39.384Z,7.13
2022-11-23T06:08:05.924Z,7.16
2022-11-23T06:10:32.594Z,7.37
2022-11-23T06:13:04.590Z,7.34
2022-11-23T06:15:31.769Z,7.38
2022-11-23T06:18:02.379Z,7.46
2022-11-23T06:20:29.935Z,7.45
2022-11-23T06:22:59.592Z,7.34
2022-11-23T06:25:29.148Z,7.27
2022-11-23T06:28:01.005Z,7.33
2022-11-23T06:30:29.296Z,7.36
2022-11-23T06:32:57.305Z,7.22
2022-11-23T06:35:24.260Z,7.34
2022-11-23T06:37:52.087Z,7.36
2022-11-23T06:40:18.702Z,7.31
2022-11-23T06:42:45.317Z,7.35
2022-11-23T06:45:12.083Z,7.40
2022-11-23T06:47:38.817Z,7.43
2022-11-23T06:50:06.093Z,7.52
2022-11-23T06:52:32.728Z,7.30
2022-11-23T06:54:59.245Z,7.50
2022-11-23T06:57:29.841Z,7.32
2022-11-23T06:59:58.448Z,7.48
2022-11-23T07:02:24.930Z,7.48
2022-11-23T07:04:52.960Z,7.39
2022-11-23T07:07:19.497Z,7.42
2022-11-23T07:09:46.085Z,7.48
2022-11-23T07:12:12.625Z,7.38
2022-11-23T07:14:39.176Z,7.58
2022-11-23T07:17:05.688Z,7.46
2022-11-23T07:19:32.539Z,7.43
2022-11-23T07:21:59.711Z,7.52
2022-11-23T07:24:26.239Z,7.35
2022-11-23T07:26:52.765Z,7.47
2022-11-23T07:29:19.297Z,7.42
2022-11-23T07:31:45.893Z,7.44
2022-11-23T07:34:12.592Z,7.35
2022-11-23T07:37:20.505Z,7.51
2022-11-23T07:39:57.275Z,7.50
2022-11-23T07:42:33.430Z,7.57
2022-11-23T07:45:04.029Z,7.60
2022-11-23T07:47:33.571Z,7.53
2022-11-23T07:50:04.249Z,7.47
2022-11-23T07:52:32.224Z,7.54
2022-11-23T07:55:02.886Z,7.59
2022-11-23T07:57:33.591Z,7.57
2022-11-23T08:00:04.188Z,7.84
2022-11-23T08:02:33.680Z,7.86
2022-11-23T08:05:04.136Z,7.84
2022-11-23T08:07:34.176Z,8.03
2022-11-23T08:10:04.168Z,7.88
2022-11-23T08:12:33.844Z,7.89
2022-11-23T08:15:02.931Z,8.08
2022-11-23T08:17:35.410Z,8.16
2022-11-23T08:20:05.116Z,8.19
2022-11-23T08:22:35.820Z,8.15
2022-11-23T08:25:05.785Z,7.98
2022-11-23T08:27:35.652Z,8.16
2022-11-23T08:30:06.106Z,8.03
2022-11-23T08:32:40.115Z,8.19
2022-11-23T08:35:07.641Z,8.31
2022-11-23T08:37:34.768Z,8.30
2022-11-23T08:40:11.968Z,8.28
2022-11-23T08:42:38.921Z,8.26
2022-11-23T08:45:06.785Z,8.41
2022-11-23T08:47:36.965Z,8.78
2022-11-23T08:50:07.317Z,9.04
2022-11-23T08:52:37.729Z,9.91
2022-11-23T08:55:04.855Z,10.49
2022-11-23T08:57:33.325Z,11.29
2022-11-23T08:59:59.872Z,11.62
2022-11-23T09:02:26.496Z,11.15
2022-11-23T09:04:53.034Z,10.75
2022-11-23T09:07:19.901Z,10.39
2022-11-23T09:09:46.730Z,10.09
2022-11-23T09:12:13.314Z,10.02
2022-11-23T09:14:40.050Z,9.92
2022-11-23T09:17:07.192Z,9.77
2022-11-23T09:19:36.848Z,9.97
2022-11-23T09:22:06.424Z,10.08
2022-11-23T09:24:36.873Z,10.21
2022-11-23T09:27:07.459Z,10.86
2022-11-23T09:29:36.721Z,11.52
2022-11-23T09:32:06.062Z,11.76
2022-11-23T09:34:34.978Z,11.79
2022-11-23T09:37:02.384Z,11.60
2022-11-23T09:39:29.012Z,11.42
2022-11-23T09:42:14.311Z,11.28
2022-11-23T09:44:53.011Z,11.32
2022-11-23T09:48:04.570Z,11.20
2022-11-23T09:50:54.100Z,11.60
2022-11-23T09:53:30.186Z,11.80
2022-11-23T09:55:58.038Z,12.37
2022-11-23T09:58:31.054Z,13.51
2022-11-23T10:01:04.673Z,14.41
2022-11-23T10:03:42.766Z,15.14
2022-11-23T10:06:18.017Z,15.95
2022-11-23T10:08:48.671Z,16.48
2022-11-23T10:11:31.102Z,16.79
2022-11-23T10:14:32.031Z,16.95
2022-11-23T10:17:18.422Z,16.63
2022-11-23T10:19:47.921Z,16.89
2022-11-23T10:22:14.385Z,17.16
2022-11-23T10:24:45.598Z,17.69
2022-11-23T10:27:16.358Z,17.69
2022-11-23T10:29:43.593Z,16.65
2022-11-23T10:32:40.089Z,15.91
2022-11-23T10:35:12.943Z,15.35
2022-11-23T10:37:40.752Z,14.85
2022-11-23T10:40:24.137Z,14.52
2022-11-23T10:42:56.303Z,14.09
2022-11-23T10:45:27.188Z,13.87
2022-11-23T10:47:59.506Z,14.16
2022-11-23T10:50:52.233Z,14.05
2022-11-23T10:53:24.009Z,13.82
2022-11-23T10:55:50.596Z,13.68
2022-11-23T10:58:29.046Z,13.74
2022-11-23T11:01:26.105Z,13.85
2022-11-23T11:03:58.005Z,13.66
2022-11-23T11:06:36.836Z,13.54
2022-11-23T11:09:19.724Z,13.45
2022-11-23T11:11:49.115Z,13.86
2022-11-23T11:14:19.117Z,14.17
2022-11-23T11:16:54.206Z,14.29
2022-11-23T11:19:28.489Z,14.38
2022-11-23T11:21:55.863Z,14.32
2022-11-23T11:24:37.843Z,14.21
2022-11-23T11:27:15.897Z,14.16
2022-11-23T11:29:45.679Z,14.41
2022-11-23T11:32:16.188Z,14.46
2022-11-23T11:34:59.942Z,14.31
2022-11-23T11:37:58.835Z,14.22
2022-11-23T11:40:39.877Z,14.09
2022-11-23T11:43:32.328Z,13.68
2022-11-23T11:46:31.420Z,13.39
2022-11-23T11:49:14.921Z,13.37
2022-11-23T11:51:46.191Z,13.22
2022-11-23T11:54:31.843Z,13.31
2022-11-23T11:57:37.090Z,13.19
2022-11-23T12:00:13.266Z,13.22
2022-11-23T12:02:50.196Z,13.35
2022-11-23T12:05:45.986Z,13.51
2022-11-23T12:08:18.560Z,13.32
2022-11-23T12:10:51.184Z,13.25
2022-11-23T12:13:22.104Z,13.31
2022-11-23T12:16:14.547Z,13.38
2022-11-23T12:18:45.467Z,13.44
2022-11-23T12:21:20.489Z,13.49
2022-11-23T12:24:18.028Z,13.43
2022-11-23T12:27:17.911Z,13.34
2022-11-23T12:30:06.109Z,13.36
2022-11-23T12:33:09.984Z,13.16
2022-11-23T12:35:39.740Z,13.01
2022-11-23T12:38:37.436Z,12.81
2022-11-23T12:41:05.881Z,12.91
2022-11-23T12:43:54.485Z,12.70
2022-11-23T12:46:45.544Z,12.81
2022-11-23T12:49:30.432Z,12.65
2022-11-23T12:52:31.196Z,12.66
2022-11-23T12:55:19.577Z,12.56
2022-11-23T12:57:46.901Z,12.51
2022-11-23T13:00:18.420Z,12.39
2022-11-23T13:02:56.978Z,12.35
2022-11-23T13:06:00.809Z,12.28
2022-11-23T13:08:54.868Z,12.07
2022-11-23T13:11:48.738Z,12.08
2022-11-23T13:14:56.850Z,12.06
2022-11-23T13:18:06.140Z,12.02
2022-11-23T13:20:49.014Z,12.52
2022-11-23T13:23:15.916Z,13.13
2022-11-23T13:25:42.479Z,13.35
2022-11-23T13:28:29.155Z,14.18
2022-11-23T13:31:25.184Z,14.35
2022-11-23T13:34:03.245Z,14.08
2022-11-23T13:36:49.239Z,13.78
2022-11-23T13:39:44.171Z,13.29
2022-11-23T13:42:11.489Z,13.16
2022-11-23T13:44:38.672Z,12.81
2022-11-23T13:47:17.408Z,12.66
2022-11-23T13:49:51.865Z,12.66
2022-11-23T13:52:21.335Z,12.78
2022-11-23T13:55:10.397Z,12.77
2022-11-23T13:57:42.393Z,12.67
2022-11-23T14:01:02.645Z,12.51
2022-11-23T14:03:47.853Z,12.77
2022-11-23T14:06:39.314Z,12.66
2022-11-23T14:09:08.698Z,12.49
2022-11-23T14:11:48.372Z,12.36
2022-11-23T14:14:20.254Z,12.43
2022-11-23T14:17:16.230Z,12.21
2022-11-23T14:20:11.154Z,12.25
2022-11-23T14:23:11.346Z,12.17
2022-11-23T14:25:40.954Z,12.32
2022-11-23T14:28:27.801Z,12.28
2022-11-23T14:31:20.632Z,12.32
2022-11-23T14:34:10.947Z,12.28
2022-11-23T14:36:57.839Z,12.15
2022-11-23T14:39:40.102Z,12.11
2022-11-23T14:42:20.787Z,11.60
2022-11-23T14:44:48.826Z,11.65
2022-11-23T14:47:29.002Z,11.80
2022-11-23T14:49:56.280Z,12.06
2022-11-23T14:52:26.331Z,12.07
2022-11-23T14:54:55.860Z,11.90
2022-11-23T14:57:25.425Z,11.69
2022-11-23T15:00:10.224Z,11.80
2022-11-23T15:02:43.091Z,11.65
2022-11-23T15:05:24.196Z,11.44
2022-11-23T15:07:56.053Z,11.45
2022-11-23T15:10:28.414Z,11.52
2022-11-23T15:12:55.029Z,11.47
2022-11-23T15:15:25.831Z,11.44
2022-11-23T15:17:59.903Z,11.39
2022-11-23T15:20:34.621Z,11.53
2022-11-23T15:23:02.367Z,11.59
2022-11-23T15:25:29.951Z,11.61
2022-11-23T15:27:56.717Z,11.48
2022-11-23T15:30:30.834Z,11.24
2022-11-23T15:33:00.266Z,11.30
2022-11-23T15:35:33.991Z,11.29
2022-11-23T15:38:02.481Z,11.29
2022-11-23T15:40:32.597Z,11.17
2022-11-23T15:42:59.421Z,11.14
2022-11-23T15:45:52.230Z,11.15
2022-11-23T15:48:23.455Z,11.02
2022-11-23T15:51:11.632Z,10.88
2022-11-23T15:53:51.470Z,10.77
2022-11-23T15:56:29.624Z,10.52
2022-11-23T15:58:58.773Z,10.46
2022-11-23T16:01:26.240Z,10.45
2022-11-23T16:04:04.850Z,10.35
2022-11-23T16:06:47.808Z,10.24
2022-11-23T16:09:54.906Z,10.25
2022-11-23T16:12:30.865Z,10.09
2022-11-23T16:15:43.547Z,10.06
2022-11-23T16:18:31.937Z,10.06
2022-11-23T16:21:04.856Z,10.07
2022-11-23T16:24:10.012Z,9.93
2022-11-23T16:26:38.983Z,9.82
2022-11-23T16:29:05.897Z,9.75
2022-11-23T16:31:53.715Z,9.62
2022-11-23T16:34:20.493Z,9.41
2022-11-23T16:36:47.266Z,9.41
2022-11-23T16:39:14.436Z,9.38
2022-11-23T16:41:41.427Z,9.34
2022-11-23T16:44:10.991Z,9.15
2022-11-23T16:46:43.281Z,8.96
2022-11-23T16:49:16.196Z,8.79
2022-11-23T16:51:43.203Z,8.97
2022-11-23T16:54:14.234Z,9.02
2022-11-23T16:56:42.763Z,9.12
2022-11-23T16:59:18.499Z,8.92
2022-11-23T17:01:55.527Z,8.85
2022-11-23T17:04:24.162Z,8.90
2022-11-23T17:06:50.807Z,8.90
2022-11-23T17:09:17.337Z,8.87
2022-11-23T17:11:46.488Z,8.79
2022-11-23T17:14:18.529Z,8.77
2022-11-23T17:16:45.838Z,8.81
2022-11-23T17:19:17.361Z,8.93
2022-11-23T17:21:44.178Z,9.05
2022-11-23T17:24:11.545Z,9.19
2022-11-23T17:26:42.522Z,9.16
2022-11-23T17:29:19.512Z,9.22
2022-11-23T17:31:47.423Z,9.13
2022-11-23T17:34:15.061Z,9.14
2022-11-23T17:36:42.957Z,9.03
2022-11-23T17:39:24.042Z,9.08
2022-11-23T17:41:50.803Z,9.07
2022-11-23T17:44:17.710Z,9.12
2022-11-23T17:46:46.001Z,8.95
2022-11-23T17:49:14.761Z,9.04
2022-11-23T17:51:41.332Z,9.05
2022-11-23T17:54:09.896Z,9.13
2022-11-23T17:56:36.804Z,9.05
2022-11-23T17:59:04.201Z,8.94
2022-11-23T18:01:30.782Z,8.91
2022-11-23T18:04:00.902Z,8.82
2022-11-23T18:06:29.406Z,8.96
2022-11-23T18:08:56.501Z,8.79
2022-11-23T18:11:23.410Z,8.75
2022-11-23T18:13:50.749Z,8.78
2022-11-23T18:16:19.086Z,8.89
2022-11-23T18:18:45.698Z,8.73
2022-11-23T18:21:14.434Z,8.83
2022-11-23T18:23:42.394Z,8.89
2022-11-23T18:26:23.475Z,8.98
2022-11-23T18:28:50.271Z,9.01
2022-11-23T18:31:17.299Z,9.16
2022-11-23T18:33:44.478Z,9.17
2022-11-23T18:36:11.498Z,9.01
2022-11-23T18:38:38.276Z,9.06
2022-11-23T18:41:05.563Z,9.00
2022-11-23T18:43:32.244Z,8.87
2022-11-23T18:45:58.989Z,8.80
2022-11-23T18:48:25.565Z,8.81
2022-11-23T18:50:54.199Z,8.92
2022-11-23T18:53:20.753Z,8.99
2022-11-23T18:55:47.297Z,9.05
2022-11-23T18:58:13.933Z,9.00
2022-11-23T19:00:43.650Z,9.15
2022-11-23T19:03:10.773Z,9.02
2022-11-23T19:05:37.329Z,9.08
2022-11-23T19:08:06.439Z,9.13
2022-11-23T19:10:35.118Z,9.08
2022-11-23T19:13:05.752Z,8.97
2022-11-23T19:15:33.269Z,9.04
2022-11-23T19:18:00.096Z,8.95
2022-11-23T19:20:27.742Z,8.98
2022-11-23T19:22:55.154Z,8.83
2022-11-23T19:25:21.653Z,8.77
2022-11-23T19:27:48.990Z,8.73
2022-11-23T19:30:16.004Z,8.52
2022-11-23T19:32:46.091Z,8.55
2022-11-23T19:35:22.590Z,8.78
2022-11-23T19:37:49.769Z,8.62
2022-11-23T19:40:16.541Z,8.52
2022-11-23T19:42:48.153Z,8.51
2022-11-23T19:45:14.762Z,8.48
2022-11-23T19:47:41.276Z,8.47
2022-11-23T19:50:08.322Z,8.38
2022-11-23T19:53:03.695Z,8.26
2022-11-23T19:55:21.392Z,8.22
2022-11-23T19:57:47.885Z,8.24
2022-11-23T20:00:15.627Z,8.25
2022-11-23T20:02:42.859Z,8.20
2022-11-23T20:05:09.442Z,8.28
2022-11-23T20:07:36.052Z,8.29
2022-11-23T20:10:02.910Z,8.18
2022-11-23T20:12:29.425Z,8.10
2022-11-23T20:14:55.905Z,7.97
2022-11-23T20:17:22.391Z,7.95
2022-11-23T20:19:48.983Z,7.96
2022-11-23T20:22:15.473Z,7.98
2022-11-23T20:24:45.062Z,8.02
2022-11-23T20:27:11.618Z,8.07
2022-11-23T20:29:38.370Z,8.06
2022-11-23T20:32:05.039Z,8.28
2022-11-23T20:34:31.598Z,8.19
2022-11-23T20:37:03.141Z,7.96
2022-11-23T20:39:29.711Z,8.17
2022-11-23T20:41:56.238Z,8.32
2022-11-23T20:44:23.591Z,8.20
2022-11-23T20:47:05.573Z,8.07
2022-11-23T20:49:32.660Z,8.04
2022-11-23T20:51:59.985Z,7.87
2022-11-23T20:54:26.993Z,7.90
2022-11-23T20:56:53.722Z,7.92
2022-11-23T20:59:20.686Z,7.84
2022-11-23T21:01:47.360Z,7.58
2022-11-23T21:04:15.499Z,7.58
2022-11-23T21:06:42.049Z,7.54
2022-11-23T21:09:10.270Z,7.51
2022-11-23T21:11:56.072Z,7.63
2022-11-23T21:14:27.424Z,7.45
2022-11-23T21:16:57.044Z,7.54
2022-11-23T21:19:34.829Z,7.58
2022-11-23T21:22:10.261Z,7.50
2022-11-23T21:24:37.748Z,7.63
2022-11-23T21:27:06.266Z,7.58
2022-11-23T21:29:33.375Z,7.50
2022-11-23T21:32:01.492Z,7.45
2022-11-23T21:34:32.870Z,7.35
2022-11-23T21:36:59.624Z,7.31
2022-11-23T21:39:26.245Z,7.61
2022-11-23T21:41:53.948Z,7.52
2022-11-23T21:44:22.103Z,7.68
2022-11-23T21:46:49.032Z,7.69
2022-11-23T21:49:18.389Z,7.61
2022-11-23T21:51:47.081Z,7.82
2022-11-23T21:54:16.868Z,7.65
2022-11-23T21:56:46.789Z,7.54
2022-11-23T21:59:13.630Z,7.50
2022-11-23T22:01:40.849Z,7.30
2022-11-23T22:04:10.980Z,7.44
2022-11-23T22:06:39.055Z,7.41
2022-11-23T22:09:22.521Z,7.46
2022-11-23T22:11:49.652Z,7.50
2022-11-23T22:14:19.874Z,7.44
2022-11-23T22:16:50.101Z,7.43
2022-11-23T22:19:18.830Z,7.52
2022-11-23T22:21:48.765Z,7.67
2022-11-23T22:24:18.598Z,7.83
2022-11-23T22:26:46.571Z,7.65
2022-11-23T22:29:13.400Z,7.56
2022-11-23T22:31:40.216Z,7.61
2022-11-23T22:34:10.074Z,7.63
2022-11-23T22:36:36.663Z,7.74
2022-11-23T22:39:05.986Z,7.72
2022-11-23T22:41:36.674Z,7.59
2022-11-23T22:44:05.365Z,7.49
2022-11-23T22:46:31.966Z,7.35
2022-11-23T22:48:59.386Z,7.24
2022-11-23T22:51:28.551Z,7.28
2022-11-23T22:53:57.250Z,7.09
2022-11-23T22:56:23.816Z,7.10
2022-11-23T22:58:50.743Z,7.06
2022-11-23T23:01:23.193Z,7.13
2022-11-23T23:03:55.573Z,7.22
2022-11-23T23:06:24.856Z,7.19
2022-11-23T23:08:56.892Z,7.05
2022-11-23T23:11:25.209Z,7.11
2022-11-23T23:13:52.477Z,6.94
2022-11-23T23:16:22.962Z,6.77
2022-11-23T23:18:54.359Z,6.97
2022-11-23T23:21:22.360Z,6.90
2022-11-23T23:23:51.950Z,7.12
2022-11-23T23:26:21.896Z,7.04
2022-11-23T23:28:48.877Z,6.95
2022-11-23T23:31:17.453Z,7.00
2022-11-23T23:33:45.424Z,7.02
2022-11-23T23:36:14.547Z,7.02
2022-11-23T23:38:41.720Z,7.11
2022-11-23T23:41:09.865Z,7.14
2022-11-23T23:43:36.972Z,6.96
2022-11-23T23:46:06.334Z,7.03
2022-11-23T23:48:35.840Z,6.83
2022-11-23T23:51:22.566Z,6.67
2022-11-23T23:53:51.373Z,6.62
2022-11-23T23:56:23.915Z,6.73
2022-11-23T23:58:52.897Z,6.54
